AirNav   Advertisement
 
 452 users online  

64S Prospect State Airport
Prospect, Oregon, USA


FAA INFORMATION EFFECTIVE 14 SEPTEMBER 2017

Location

FAA Identifier: 64S
Lat/Long: 42-44-33.3000N / 122-29-20.3000W
42-44.555000N / 122-29.338333W
42.7425833 / -122.4889722
(estimated)
Elevation: 2578 ft. / 786 m (estimated)
Variation: 18E (1985)
From city: 1 mile S of PROSPECT, OR
Time zone: UTC -7 (UTC -8 during Standard Time)
Zip code: 97536

Airport Operations

Airport use: Open to the public
Activation date: 11/1963
Control tower: no
ARTCC: SEATTLE CENTER
FSS: MC MINNVILLE FLIGHT SERVICE STATION
NOTAMs facility: MMV (NOTAM-D service available)
Attendance: UNATNDD
Pattern altitude: 3578 ft. MSL
Wind indicator: yes
Segmented circle: yes
NSTD CIRCLE MARKINGS; TIRES PAINTED WHITE AND ORANGE.
Beacon: white-green (lighted land airport)
TREES OBSCURE VIEW OF ROTG BCN FROM SE-SW QUADRANTS OF ARPT. Operates sunset to sunrise.

Airport Communications

CTAF/UNICOM: 122.8

Nearby radio navigation aids

VOR radial/distance  VOR name  Freq  Var
OEDr031/24.5ROGUE VALLEY VORTAC113.6019E

 
NDB name  Hdg/Dist  Freq  Var  ID
MEDFORD023/27.235616EMEF -- . ..-.

Airport Services

Parking: tiedowns
Airframe service: NONE
Powerplant service: NONE
Bottled oxygen: NONE
Bulk oxygen: NONE

Runway Information

Runway 2/20

Dimensions: 4000 x 50 ft. / 1219 x 15 m
Surface: asphalt, in fair condition
Runway edge lights: low intensity
LIRL OTS INDEF.
RUNWAY 2  RUNWAY 20
Latitude: 42-44.304067N42-44.807270N
Longitude: 122-29.626075W122-29.049453W
Elevation: 2527.0 ft.2578.0 ft.
Gradient: 1.3% UP1.0%
Traffic pattern: leftleft
Runway heading: 022 magnetic, 040 true202 magnetic, 220 true
Markings: basic, in good conditionbasic, in good condition
Obstructions: 20 ft. trees, 225 ft. from runway, 30 ft. both sides of centerline, 1:1 slope to clear
RY 2 +70' UNLIGHTED TREES ABEAM THLD 120' L OF CNTRLN.
103 ft. trees, 1123 ft. from runway, 20 ft. both sides of centerline, 9:1 slope to clear
RY 20 +100' UNLIGHTED TREES 900'-1300' FROM RY END ON CNTRLN; +70' UNLIGHTED TREES ABEAM THLD 150-200' L OF CNTRLN; 10' BRUSH FROM 0-200' AND 50' RIGHT OF CENTERLINE.

Airport Ownership and Management from official FAA records

Ownership: Publicly-owned
Owner: OREGON DEPT. OF AVIATION
3040 25TH ST, SE
SALEM, OR 97302-1125
Phone 503-378-4880
Manager: STATE AIRPORTS MANAGER
3040 25TH ST, SE
SALEM, OR 97302-1125
Phone 503-378-4880

Airport Operational Statistics

Aircraft based on the field: 1
Single engine airplanes: 1
    
Aircraft operations: avg 23/week *
71% transient general aviation
16% air taxi
12% local general aviation
* for 12-month period ending 08 March 2016

Additional Remarks

80 FT - 100 FT TREES WITH IN 200 FT OF RY CNTRLN BOTH SIDES OF RY.
TURF TIE DOWN AREA ROUGH.
IRREGULAR WINTER MAINTENANCE; ARPT MAY BE CLOSED BY SNOW.
ARPT CLSD SS-SR
SURFACE CONDITIONS NOT REPORTED.

Instrument Procedures

There are no published instrument procedures at 64S.

Some nearby airports with instrument procedures:

KMFR - Rogue Valley International - Medford Airport (28 nm SW)
3S8 - Grants Pass Airport (42 nm W)
KRBG - Roseburg Regional Airport (48 nm NW)
KLMT - Crater Lake-Klamath Regional Airport (49 nm SE)
KSIY - Siskiyou County Airport (58 nm S)
 
Loc | Ops | Rwys | IFR | FBO | Links
Com | Nav | Svcs | Stats | Notes


 
Area around 64S (Prospect State Airport)
 
Road maps at: MapQuest Bing Google
 
Aerial photo
WARNING: Photo may not be current or correct
Aerial photo of 64S (Prospect State Airport)
Do you have a better or more recent aerial photo of Prospect State Airport that you would like to share? If so, please send us your photo.

 
Sectional chart

 
Airport distance calculator
Flying to Prospect State Airport? Find the distance to fly.

From to 64S

Sunrise and sunset
Times for 25-Sep-2017
 Local
(UTC-7)
 Zulu
(UTC)
Morning civil twilight06:3313:33
Sunrise07:0214:02
Sunset19:0202:02
Evening civil twilight19:3002:30

Current date and time
Zulu (UTC)  25-Sep-2017 10:41:12
Local (UTC-7)  25-Sep-2017 03:41:12
 
METAR
KMFR 
27nm SW 
250953Z AUTO 00000KT 10SM CLR 11/06 A3011 RMK AO2 SLP192 T01060061 $
S03 
34nm S 
SuperAWOS
251015Z AUTO 00000KT 10SM 06/05 A3015
KSXT 
40nm W 
250956Z AUTO 36009KT 10SM CLR 09/05 A3014 RMK AO2 SLP182 T00940050
3S8 
42nm W 
SuperAWOS
250955Z AUTO 00000KT 10SM 10/07 A3015
KRBG 
48nm NW 
250953Z AUTO 00000KT 10SM CLR 11/09 A3012 RMK AO2 SLP199 T01110089
KLMT 
49nm SE 
250953Z AUTO 01004KT 10SM CLR 04/01 A3015 RMK AO2 SLP193 T00390011
TAF
KMFR 
27nm SW 
250522Z 2506/2606 VRB02KT P6SM FEW120 BKN150 BKN250 FM252100 32006KT P6SM FEW080
NOTAMs
Click for the latest NOTAMs
NOTAMs are issued by the DoD/FAA and will open in a separate window not controlled by AirNav.

 

 
 

Would you like to see your business listed on this page?

 If your business provides an interesting product or service to pilots, flight crews, aircraft, or users of the Prospect State Airport, you should consider listing it here.  To start the listing process, click on the button below
 
Add a business
 

Other Pages about Prospect State Airport

Update a link
 
Copyright © AirNav, LLC. All rights reserved. Privacy Policy  Contact